sensor_id;sensor_type;location;lat;lon;timestamp;pressure;altitude;pressure_sealevel;temperature;humidity
9421;BME280;4749;51.398;5.466;2023-05-07T00:00:13;101398.28;;;16.33;100.00
9421;BME280;4749;51.398;5.466;2023-05-07T00:02:42;101395.59;;;16.35;100.00
9421;BME280;4749;51.398;5.466;2023-05-07T00:05:10;101403.53;;;16.36;100.00
9421;BME280;4749;51.398;5.466;2023-05-07T00:07:37;101404.44;;;16.35;100.00
9421;BME280;4749;51.398;5.466;2023-05-07T00:10:06;101396.53;;;16.32;100.00
9421;BME280;4749;51.398;5.466;2023-05-07T00:12:33;101398.31;;;16.31;100.00
9421;BME280;4749;51.398;5.466;2023-05-07T00:15:03;101390.31;;;16.35;100.00
9421;BME280;4749;51.398;5.466;2023-05-07T00:17:30;101389.44;;;16.32;100.00
9421;BME280;4749;51.398;5.466;2023-05-07T00:19:57;101385.91;;;16.32;100.00
9421;BME280;4749;51.398;5.466;2023-05-07T00:22:24;101385.06;;;16.28;100.00
9421;BME280;4749;51.398;5.466;2023-05-07T00:24:51;101379.81;;;16.22;100.00
9421;BME280;4749;51.398;5.466;2023-05-07T00:27:18;101386.06;;;16.20;100.00
9421;BME280;4749;51.398;5.466;2023-05-07T00:29:45;101378.13;;;16.18;100.00
9421;BME280;4749;51.398;5.466;2023-05-07T00:32:12;101385.19;;;16.19;100.00
9421;BME280;4749;51.398;5.466;2023-05-07T00:34:40;101373.69;;;16.19;100.00
9421;BME280;4749;51.398;5.466;2023-05-07T00:37:07;101380.78;;;16.18;100.00
9421;BME280;4749;51.398;5.466;2023-05-07T00:39:35;101371.97;;;16.16;100.00
9421;BME280;4749;51.398;5.466;2023-05-07T00:42:03;101380.81;;;16.14;100.00
9421;BME280;4749;51.398;5.466;2023-05-07T00:44:31;101371.09;;;16.16;100.00
9421;BME280;4749;51.398;5.466;2023-05-07T00:46:58;101370.22;;;16.15;100.00
9421;BME280;4749;51.398;5.466;2023-05-07T00:49:39;101367.53;;;16.14;100.00
9421;BME280;4749;51.398;5.466;2023-05-07T00:52:11;101367.53;;;16.14;100.00
9421;BME280;4749;51.398;5.466;2023-05-07T00:54:41;101369.31;;;16.13;100.00
9421;BME280;4749;51.398;5.466;2023-05-07T00:57:10;101372.84;;;16.14;100.00
9421;BME280;4749;51.398;5.466;2023-05-07T00:59:40;101371.97;;;16.13;100.00
9421;BME280;4749;51.398;5.466;2023-05-07T01:02:08;101379.94;;;16.13;100.00
9421;BME280;4749;51.398;5.466;2023-05-07T01:04:35;101373.72;;;16.14;100.00
9421;BME280;4749;51.398;5.466;2023-05-07T01:07:03;101380.81;;;16.14;100.00
9421;BME280;4749;51.398;5.466;2023-05-07T01:09:32;101371.97;;;16.15;100.00
9421;BME280;4749;51.398;5.466;2023-05-07T01:11:59;101373.72;;;16.14;100.00
9421;BME280;4749;51.398;5.466;2023-05-07T01:14:27;101367.56;;;16.15;100.00
9421;BME280;4749;51.398;5.466;2023-05-07T01:16:54;101364.03;;;16.15;100.00
9421;BME280;4749;51.398;5.466;2023-05-07T01:19:21;101359.59;;;16.15;100.00
9421;BME280;4749;51.398;5.466;2023-05-07T01:21:49;101364.91;;;16.14;100.00
9421;BME280;4749;51.398;5.466;2023-05-07T01:24:18;101353.41;;;16.15;100.00
9421;BME280;4749;51.398;5.466;2023-05-07T01:26:45;101351.63;;;16.15;100.00
9421;BME280;4749;51.398;5.466;2023-05-07T01:29:12;101349.88;;;16.13;100.00
9421;BME280;4749;51.398;5.466;2023-05-07T01:31:41;101342.81;;;16.12;100.00
9421;BME280;4749;51.398;5.466;2023-05-07T01:34:11;101349.06;;;16.09;100.00
9421;BME280;4749;51.398;5.466;2023-05-07T01:36:40;101350.84;;;16.07;100.00
9421;BME280;4749;51.398;5.466;2023-05-07T01:39:09;101349.97;;;16.05;100.00
9421;BME280;4749;51.398;5.466;2023-05-07T01:41:37;101349.09;;;16.06;100.00
9421;BME280;4749;51.398;5.466;2023-05-07T01:44:05;101344.66;;;16.05;100.00
9421;BME280;4749;51.398;5.466;2023-05-07T01:46:33;101346.47;;;16.03;100.00
9421;BME280;4749;51.398;5.466;2023-05-07T01:49:01;101343.88;;;15.98;100.00
9421;BME280;4749;51.398;5.466;2023-05-07T01:51:28;101343.00;;;15.98;100.00
9421;BME280;4749;51.398;5.466;2023-05-07T01:53:55;101343.00;;;15.98;100.00
9421;BME280;4749;51.398;5.466;2023-05-07T01:56:25;101334.16;;;15.99;100.00
9421;BME280;4749;51.398;5.466;2023-05-07T01:58:52;101328.84;;;15.97;100.00
9421;BME280;4749;51.398;5.466;2023-05-07T02:01:19;101330.63;;;15.97;100.00
9421;BME280;4749;51.398;5.466;2023-05-07T02:03:46;101330.66;;;15.95;100.00
9421;BME280;4749;51.398;5.466;2023-05-07T02:06:14;101328.88;;;15.94;100.00
9421;BME280;4749;51.398;5.466;2023-05-07T02:08:41;101330.66;;;15.94;100.00
9421;BME280;4749;51.398;5.466;2023-05-07T02:11:08;101332.50;;;15.90;100.00
9421;BME280;4749;51.398;5.466;2023-05-07T02:13:35;101332.44;;;15.93;100.00
9421;BME280;4749;51.398;5.466;2023-05-07T02:16:03;101341.28;;;15.94;100.00
9421;BME280;4749;51.398;5.466;2023-05-07T02:18:31;101349.22;;;15.94;100.00
9421;BME280;4749;51.398;5.466;2023-05-07T02:20:58;101343.91;;;15.94;100.00
9421;BME280;4749;51.398;5.466;2023-05-07T02:23:25;101346.59;;;15.92;100.00
9421;BME280;4749;51.398;5.466;2023-05-07T02:25:52;101353.66;;;15.93;100.00
9421;BME280;4749;51.398;5.466;2023-05-07T02:28:19;101358.97;;;15.93;100.00
9421;BME280;4749;51.398;5.466;2023-05-07T02:30:46;101354.56;;;15.92;100.00
9421;BME280;4749;51.398;5.466;2023-05-07T02:33:13;101358.97;;;15.92;100.00
9421;BME280;4749;51.398;5.466;2023-05-07T02:35:40;101351.91;;;15.92;100.00
9421;BME280;4749;51.398;5.466;2023-05-07T02:38:08;101349.28;;;15.91;100.00
9421;BME280;4749;51.398;5.466;2023-05-07T02:40:37;101351.94;;;15.91;100.00
9421;BME280;4749;51.398;5.466;2023-05-07T02:43:07;101358.13;;;15.90;100.00
9421;BME280;4749;51.398;5.466;2023-05-07T02:45:34;101350.19;;;15.90;100.00
9421;BME280;4749;51.398;5.466;2023-05-07T02:48:01;101349.28;;;15.91;100.00
9421;BME280;4749;51.398;5.466;2023-05-07T02:50:28;101353.69;;;15.90;100.00
9421;BME280;4749;51.398;5.466;2023-05-07T02:52:56;101351.94;;;15.91;100.00
9421;BME280;4749;51.398;5.466;2023-05-07T02:55:23;101352.81;;;15.91;100.00
9421;BME280;4749;51.398;5.466;2023-05-07T02:57:50;101358.13;;;15.90;100.00
9421;BME280;4749;51.398;5.466;2023-05-07T03:00:19;101353.72;;;15.87;100.00
9421;BME280;4749;51.398;5.466;2023-05-07T03:02:46;101351.94;;;15.91;100.00
9421;BME280;4749;51.398;5.466;2023-05-07T03:05:13;101343.09;;;15.89;100.00
9421;BME280;4749;51.398;5.466;2023-05-07T03:07:41;101348.38;;;15.89;100.00
9421;BME280;4749;51.398;5.466;2023-05-07T03:10:11;101339.56;;;15.90;100.00
9421;BME280;4749;51.398;5.466;2023-05-07T03:12:39;101351.06;;;15.90;100.00
9421;BME280;4749;51.398;5.466;2023-05-07T03:15:08;101342.22;;;15.90;100.00
9421;BME280;4749;51.398;5.466;2023-05-07T03:17:35;101341.28;;;15.94;100.00
9421;BME280;4749;51.398;5.466;2023-05-07T03:20:03;101335.06;;;15.95;100.00
9421;BME280;4749;51.398;5.466;2023-05-07T03:22:30;101335.94;;;15.95;100.00
9421;BME280;4749;51.398;5.466;2023-05-07T03:24:57;101337.69;;;15.96;100.00
9421;BME280;4749;51.398;5.466;2023-05-07T03:27:24;101338.56;;;16.00;100.00
9421;BME280;4749;51.398;5.466;2023-05-07T03:29:51;101331.53;;;15.96;100.00
9421;BME280;4749;51.398;5.466;2023-05-07T03:32:18;101334.19;;;15.94;100.00
9421;BME280;4749;51.398;5.466;2023-05-07T03:34:45;101335.03;;;15.96;100.00
9421;BME280;4749;51.398;5.466;2023-05-07T03:37:12;101333.25;;;15.97;100.00
9421;BME280;4749;51.398;5.466;2023-05-07T03:39:40;101334.25;;;15.90;100.00
9421;BME280;4749;51.398;5.466;2023-05-07T03:42:07;101331.63;;;15.90;100.00
9421;BME280;4749;51.398;5.466;2023-05-07T03:44:34;101334.25;;;15.88;100.00
9421;BME280;4749;51.398;5.466;2023-05-07T03:47:03;101329.84;;;15.87;100.00
9421;BME280;4749;51.398;5.466;2023-05-07T03:49:30;101332.47;;;15.89;100.00
9421;BME280;4749;51.398;5.466;2023-05-07T03:51:57;101326.31;;;15.87;100.00
9421;BME280;4749;51.398;5.466;2023-05-07T03:54:25;101328.09;;;15.86;100.00
9421;BME280;4749;51.398;5.466;2023-05-07T03:56:52;101331.69;;;15.81;100.00
9421;BME280;4749;51.398;5.466;2023-05-07T03:59:19;101330.84;;;15.79;100.00
9421;BME280;4749;51.398;5.466;2023-05-07T04:01:46;101344.09;;;15.79;100.00
9421;BME280;4749;51.398;5.466;2023-05-07T04:04:13;101340.56;;;15.78;100.00
9421;BME280;4749;51.398;5.466;2023-05-07T04:06:40;101348.50;;;15.80;100.00
9421;BME280;4749;51.398;5.466;2023-05-07T04:09:08;101352.03;;;15.82;100.00
9421;BME280;4749;51.398;5.466;2023-05-07T04:11:36;101348.50;;;15.81;100.00
9421;BME280;4749;51.398;5.466;2023-05-07T04:14:03;101348.47;;;15.83;100.00
9421;BME280;4749;51.398;5.466;2023-05-07T04:16:30;101355.50;;;15.85;100.00
9421;BME280;4749;51.398;5.466;2023-05-07T04:18:58;101358.13;;;15.87;100.00
9421;BME280;4749;51.398;5.466;2023-05-07T04:21:26;101357.25;;;15.89;100.00
9421;BME280;4749;51.398;5.466;2023-05-07T04:23:53;101359.00;;;15.90;100.00
9421;BME280;4749;51.398;5.466;2023-05-07T04:26:20;101357.22;;;15.92;100.00
9421;BME280;4749;51.398;5.466;2023-05-07T04:28:48;101358.94;;;15.95;100.00
9421;BME280;4749;51.398;5.466;2023-05-07T04:31:15;101362.44;;;15.97;100.00
9421;BME280;4749;51.398;5.466;2023-05-07T04:33:42;101359.78;;;16.00;100.00
9421;BME280;4749;51.398;5.466;2023-05-07T04:36:09;101358.81;;;16.05;100.00
9421;BME280;4749;51.398;5.466;2023-05-07T04:38:36;101351.72;;;16.09;100.00
9421;BME280;4749;51.398;5.466;2023-05-07T04:41:05;101356.06;;;16.15;100.00
9421;BME280;4749;51.398;5.466;2023-05-07T04:43:33;101357.78;;;16.17;100.00
9421;BME280;4749;51.398;5.466;2023-05-07T04:46:00;101362.19;;;16.20;100.00
9421;BME280;4749;51.398;5.466;2023-05-07T04:48:27;101364.81;;;16.21;100.00
9421;BME280;4749;51.398;5.466;2023-05-07T04:50:55;101363.91;;;16.24;100.00
9421;BME280;4749;51.398;5.466;2023-05-07T04:53:22;101373.59;;;16.26;100.00
9421;BME280;4749;51.398;5.466;2023-05-07T04:55:56;101366.50;;;16.28;100.00
9421;BME280;4749;51.398;5.466;2023-05-07T04:58:26;101366.50;;;16.28;100.00
9421;BME280;4749;51.398;5.466;2023-05-07T05:00:54;101370.91;;;16.29;100.00
9421;BME280;4749;51.398;5.466;2023-05-07T05:03:21;101368.28;;;16.28;100.00
9421;BME280;4749;51.398;5.466;2023-05-07T05:05:52;101365.63;;;16.26;100.00
9421;BME280;4749;51.398;5.466;2023-05-07T05:08:19;101370.94;;;16.26;100.00
9421;BME280;4749;51.398;5.466;2023-05-07T05:10:46;101371.88;;;16.24;100.00
9421;BME280;4749;51.398;5.466;2023-05-07T05:13:15;101377.16;;;16.25;100.00
9421;BME280;4749;51.398;5.466;2023-05-07T05:15:43;101378.00;;;16.27;100.00
9421;BME280;4749;51.398;5.466;2023-05-07T05:18:10;101380.63;;;16.29;100.00
9421;BME280;4749;51.398;5.466;2023-05-07T05:20:37;101382.31;;;16.36;100.00
9421;BME280;4749;51.398;5.466;2023-05-07T05:23:04;101383.16;;;16.41;100.00
9421;BME280;4749;51.398;5.466;2023-05-07T05:25:31;101380.41;;;16.49;100.00
9421;BME280;4749;51.398;5.466;2023-05-07T05:27:58;101384.69;;;16.56;100.00
9421;BME280;4749;51.398;5.466;2023-05-07T05:30:25;101386.41;;;16.61;100.00
9421;BME280;4749;51.398;5.466;2023-05-07T05:32:52;101385.44;;;16.67;100.00
9421;BME280;4749;51.398;5.466;2023-05-07T05:35:19;101391.56;;;16.75;100.00
9421;BME280;4749;51.398;5.466;2023-05-07T05:37:46;101395.91;;;16.79;100.00
9421;BME280;4749;51.398;5.466;2023-05-07T05:40:14;101395.00;;;16.83;100.00
9421;BME280;4749;51.398;5.466;2023-05-07T05:42:41;101401.16;;;16.85;100.00
9421;BME280;4749;51.398;5.466;2023-05-07T05:45:09;101401.13;;;16.87;100.00
9421;BME280;4749;51.398;5.466;2023-05-07T05:47:37;101393.97;;;16.92;100.00
9421;BME280;4749;51.398;5.466;2023-05-07T05:50:06;101393.84;;;17.01;100.00
9421;BME280;4749;51.398;5.466;2023-05-07T05:52:34;101400.81;;;17.08;100.00
9421;BME280;4749;51.398;5.466;2023-05-07T05:55:01;101397.16;;;17.14;100.00
9421;BME280;4749;51.398;5.466;2023-05-07T05:57:28;101391.81;;;17.19;100.00
9421;BME280;4749;51.398;5.466;2023-05-07T05:59:55;101396.09;;;17.27;100.00
9421;BME280;4749;51.398;5.466;2023-05-07T06:02:22;101396.75;;;17.40;100.00
9421;BME280;4749;51.398;5.466;2023-05-07T06:04:50;101395.66;;;17.53;100.00
9421;BME280;4749;51.398;5.466;2023-05-07T06:07:17;101397.19;;;17.66;100.00
9421;BME280;4749;51.398;5.466;2023-05-07T06:09:44;101393.47;;;17.78;100.00
9421;BME280;4749;51.398;5.466;2023-05-07T06:12:11;101392.44;;;17.85;100.00
9421;BME280;4749;51.398;5.466;2023-05-07T06:14:38;101402.06;;;17.92;100.00
9421;BME280;4749;51.398;5.466;2023-05-07T06:17:06;101401.94;;;18.00;100.00
9421;BME280;4749;51.398;5.466;2023-05-07T06:19:33;101404.47;;;18.05;100.00
9421;BME280;4749;51.398;5.466;2023-05-07T06:22:01;101403.53;;;18.09;100.00
9421;BME280;4749;51.398;5.466;2023-05-07T06:24:29;101407.84;;;18.14;100.00
9421;BME280;4749;51.398;5.466;2023-05-07T06:26:56;101414.84;;;18.20;100.00
9421;BME280;4749;51.398;5.466;2023-05-07T06:29:25;101408.53;;;18.24;100.00
9421;BME280;4749;51.398;5.466;2023-05-07T06:31:55;101405.69;;;18.35;100.00
9421;BME280;4749;51.398;5.466;2023-05-07T06:34:22;101401.94;;;18.43;100.00
9421;BME280;4749;51.398;5.466;2023-05-07T06:36:49;101403.53;;;18.52;100.00
9421;BME280;4749;51.398;5.466;2023-05-07T06:39:19;101404.25;;;18.60;100.00
9421;BME280;4749;51.398;5.466;2023-05-07T06:41:47;101406.66;;;18.72;100.00
9421;BME280;4749;51.398;5.466;2023-05-07T06:44:14;101412.66;;;18.82;100.00
9421;BME280;4749;51.398;5.466;2023-05-07T06:46:42;101410.69;;;18.90;100.00
9421;BME280;4749;51.398;5.466;2023-05-07T06:49:09;101415.03;;;18.96;100.00
9421;BME280;4749;51.398;5.466;2023-05-07T06:51:36;101418.47;;;19.01;100.00
9421;BME280;4749;51.398;5.466;2023-05-07T06:54:03;101423.72;;;19.04;100.00
9421;BME280;4749;51.398;5.466;2023-05-07T06:56:32;101428.91;;;19.10;100.00
9421;BME280;4749;51.398;5.466;2023-05-07T06:59:01;101422.56;;;19.14;100.00
9421;BME280;4749;51.398;5.466;2023-05-07T07:01:29;101427.88;;;19.16;100.00
9421;BME280;4749;51.398;5.466;2023-05-07T07:03:56;101432.28;;;19.17;100.00
9421;BME280;4749;51.398;5.466;2023-05-07T07:06:23;101433.19;;;19.16;100.00
9421;BME280;4749;51.398;5.466;2023-05-07T07:08:50;101421.66;;;19.15;100.00
9421;BME280;4749;51.398;5.466;2023-05-07T07:11:17;101422.50;;;19.19;100.00
9421;BME280;4749;51.398;5.466;2023-05-07T07:13:44;101425.97;;;19.21;100.00
9421;BME280;4749;51.398;5.466;2023-05-07T07:16:11;101429.44;;;19.26;100.00
9421;BME280;4749;51.398;5.466;2023-05-07T07:18:39;101423.09;;;19.30;100.00
9421;BME280;4749;51.398;5.466;2023-05-07T07:21:06;101425.63;;;19.36;100.00
9421;BME280;4749;51.398;5.466;2023-05-07T07:23:35;101427.22;;;19.41;100.00
9421;BME280;4749;51.398;5.466;2023-05-07T07:26:02;101415.47;;;19.50;100.00
9421;BME280;4749;51.398;5.466;2023-05-07T07:28:29;101426.75;;;19.63;100.00
9421;BME280;4749;51.398;5.466;2023-05-07T07:30:56;101422.03;;;19.73;100.00
9421;BME280;4749;51.398;5.466;2023-05-07T07:33:23;101419.09;;;19.83;100.00
9421;BME280;4749;51.398;5.466;2023-05-07T07:35:50;101425.91;;;19.95;100.00
9421;BME280;4749;51.398;5.466;2023-05-07T07:38:17;101426.47;;;20.06;100.00
9421;BME280;4749;51.398;5.466;2023-05-07T07:40:44;101435.09;;;20.16;100.00
9421;BME280;4749;51.398;5.466;2023-05-07T07:43:12;101432.28;;;20.22;100.00
9421;BME280;4749;51.398;5.466;2023-05-07T07:45:40;101433.00;;;20.29;100.00
9421;BME280;4749;51.398;5.466;2023-05-07T07:48:07;101431.09;;;20.32;100.00
9421;BME280;4749;51.398;5.466;2023-05-07T07:50:34;101432.72;;;20.38;100.00
9421;BME280;4749;51.398;5.466;2023-05-07T07:53:11;101433.41;;;20.46;100.00
9421;BME280;4749;51.398;5.466;2023-05-07T07:55:39;101429.66;;;20.53;100.00
9421;BME280;4749;51.398;5.466;2023-05-07T07:58:07;101435.63;;;20.61;100.00
9421;BME280;4749;51.398;5.466;2023-05-07T08:00:34;101435.38;;;20.70;100.00
9421;BME280;4749;51.398;5.466;2023-05-07T08:03:01;101432.47;;;20.76;100.00
9421;BME280;4749;51.398;5.466;2023-05-07T08:05:30;101428.72;;;20.84;100.00
9421;BME280;4749;51.398;5.466;2023-05-07T08:07:57;101437.38;;;20.92;100.00
9421;BME280;4749;51.398;5.466;2023-05-07T08:10:25;101430.78;;;21.03;100.00
9421;BME280;4749;51.398;5.466;2023-05-07T08:12:52;101426.69;;;21.20;100.00
9421;BME280;4749;51.398;5.466;2023-05-07T08:15:19;101431.44;;;21.40;100.00
9421;BME280;4749;51.398;5.466;2023-05-07T08:17:46;101425.66;;;21.52;100.00
9421;BME280;4749;51.398;5.466;2023-05-07T08:20:14;101427.75;;;21.69;100.00
9421;BME280;4749;51.398;5.466;2023-05-07T08:22:41;101432.44;;;21.88;100.00
9421;BME280;4749;51.398;5.466;2023-05-07T08:25:09;101437.78;;;22.15;100.00
9421;BME280;4749;51.398;5.466;2023-05-07T08:27:36;101443.22;;;22.37;100.00
9421;BME280;4749;51.398;5.466;2023-05-07T08:30:04;101448.06;;;22.51;100.00
9421;BME280;4749;51.398;5.466;2023-05-07T08:32:32;101451.16;;;22.63;100.00
9421;BME280;4749;51.398;5.466;2023-05-07T08:35:00;101454.13;;;22.79;100.00
9421;BME280;4749;51.398;5.466;2023-05-07T08:37:27;101452.13;;;22.84;100.00
9421;BME280;4749;51.398;5.466;2023-05-07T08:39:54;101453.81;;;22.88;100.00
9421;BME280;4749;51.398;5.466;2023-05-07T08:42:23;101460.00;;;22.90;100.00
9421;BME280;4749;51.398;5.466;2023-05-07T08:44:51;101458.03;;;22.94;100.00
9421;BME280;4749;51.398;5.466;2023-05-07T08:47:28;101454.03;;;23.06;100.00
9421;BME280;4749;51.398;5.466;2023-05-07T08:49:56;101457.16;;;23.17;100.00
9421;BME280;4749;51.398;5.466;2023-05-07T08:52:23;101458.44;;;23.28;100.00
9421;BME280;4749;51.398;5.466;2023-05-07T08:54:51;101451.66;;;23.42;100.00
9421;BME280;4749;51.398;5.466;2023-05-07T08:57:18;101457.09;;;23.62;100.00
9421;BME280;4749;51.398;5.466;2023-05-07T08:59:47;101454.53;;;23.81;100.00
9421;BME280;4749;51.398;5.466;2023-05-07T09:02:14;101456.47;;;23.98;100.00
9421;BME280;4749;51.398;5.466;2023-05-07T09:04:43;101463.81;;;24.14;100.00
9421;BME280;4749;51.398;5.466;2023-05-07T09:07:10;101460.56;;;24.27;100.00
9421;BME280;4749;51.398;5.466;2023-05-07T09:09:37;101457.69;;;24.31;100.00
9421;BME280;4749;51.398;5.466;2023-05-07T09:12:05;101455.41;;;24.42;100.00
9421;BME280;4749;51.398;5.466;2023-05-07T09:14:32;101456.59;;;24.56;100.00
9421;BME280;4749;51.398;5.466;2023-05-07T09:16:59;101462.28;;;24.68;100.00
9421;BME280;4749;51.398;5.466;2023-05-07T09:19:27;101462.44;;;24.84;100.00
9421;BME280;4749;51.398;5.466;2023-05-07T09:22:02;101465.47;;;24.95;100.00
9421;BME280;4749;51.398;5.466;2023-05-07T09:24:30;101466.00;;;25.04;100.00
9421;BME280;4749;51.398;5.466;2023-05-07T09:27:02;101464.63;;;25.14;100.00
9421;BME280;4749;51.398;5.466;2023-05-07T09:29:29;101466.94;;;25.21;100.00
9421;BME280;4749;51.398;5.466;2023-05-07T09:32:02;101479.41;;;25.24;100.00
9421;BME280;4749;51.398;5.466;2023-05-07T09:34:30;101472.28;;;25.23;100.00
9421;BME280;4749;51.398;5.466;2023-05-07T09:37:02;101467.69;;;25.25;100.00
9421;BME280;4749;51.398;5.466;2023-05-07T09:42:10;101467.94;;;25.38;100.00
9421;BME280;4749;51.398;5.466;2023-05-07T09:44:38;101465.97;;;25.41;100.00
9421;BME280;4749;51.398;5.466;2023-05-07T09:47:07;101470.13;;;25.48;100.00
9421;BME280;4749;51.398;5.466;2023-05-07T09:49:36;101470.19;;;25.64;100.00
9421;BME280;4749;51.398;5.466;2023-05-07T09:52:06;101469.53;;;25.78;100.00
9421;BME280;4749;51.398;5.466;2023-05-07T09:54:36;101476.69;;;25.96;100.00
9421;BME280;4749;51.398;5.466;2023-05-07T09:57:05;101467.09;;;26.08;100.00
9421;BME280;4749;51.398;5.466;2023-05-07T09:59:34;101474.53;;;26.20;100.00
9421;BME280;4749;51.398;5.466;2023-05-07T10:02:04;101473.63;;;26.37;100.00
9421;BME280;4749;51.398;5.466;2023-05-07T10:04:33;101466.50;;;26.53;100.00
9421;BME280;4749;51.398;5.466;2023-05-07T10:07:01;101472.38;;;26.77;100.00
9421;BME280;4749;51.398;5.466;2023-05-07T10:09:30;101469.28;;;27.01;100.00
9421;BME280;4749;51.398;5.466;2023-05-07T10:11:58;101476.47;;;27.17;100.00
9421;BME280;4749;51.398;5.466;2023-05-07T10:14:27;101476.19;;;27.22;100.00
9421;BME280;4749;51.398;5.466;2023-05-07T10:16:54;101479.59;;;27.26;100.00
9421;BME280;4749;51.398;5.466;2023-05-07T10:19:23;101469.56;;;27.28;100.00
9421;BME280;4749;51.398;5.466;2023-05-07T10:22:05;101476.28;;;27.36;100.00
9421;BME280;4749;51.398;5.466;2023-05-07T10:24:33;101477.75;;;27.42;100.00
9421;BME280;4749;51.398;5.466;2023-05-07T10:27:05;101473.22;;;27.42;100.00
9421;BME280;4749;51.398;5.466;2023-05-07T10:32:49;101479.22;;;27.47;100.00
9421;BME280;4749;51.398;5.466;2023-05-07T10:35:25;101476.88;;;27.41;100.00
9421;BME280;4749;51.398;5.466;2023-05-07T10:37:54;101482.19;;;27.43;100.00
9421;BME280;4749;51.398;5.466;2023-05-07T10:40:21;101491.06;;;27.45;100.00
9421;BME280;4749;51.398;5.466;2023-05-07T10:43:03;101485.84;;;27.42;100.00
9421;BME280;4749;51.398;5.466;2023-05-07T10:45:36;101483.22;;;27.40;100.00
9421;BME280;4749;51.398;5.466;2023-05-07T10:48:29;101491.31;;;27.40;100.00
9421;BME280;4749;51.398;5.466;2023-05-07T10:51:26;101490.00;;;27.32;100.00
9421;BME280;4749;51.398;5.466;2023-05-07T10:56:38;101491.84;;;27.15;100.00
9421;BME280;4749;51.398;5.466;2023-05-07T11:02:00;101491.84;;;27.00;100.00
9421;BME280;4749;51.398;5.466;2023-05-07T11:04:33;101488.66;;;26.76;100.00
9421;BME280;4749;51.398;5.466;2023-05-07T11:09:56;101475.47;;;26.36;100.00
9421;BME280;4749;51.398;5.466;2023-05-07T11:15:12;101473.41;;;26.59;100.00
9421;BME280;4749;51.398;5.466;2023-05-07T11:17:57;101475.25;;;26.90;100.00
9421;BME280;4749;51.398;5.466;2023-05-07T11:26:08;101482.16;;;27.74;100.00
9421;BME280;4749;51.398;5.466;2023-05-07T11:28:39;101478.84;;;27.85;100.00
9421;BME280;4749;51.398;5.466;2023-05-07T11:31:07;101487.59;;;27.89;100.00
9421;BME280;4749;51.398;5.466;2023-05-07T11:33:35;101483.06;;;27.89;100.00
9421;BME280;4749;51.398;5.466;2023-05-07T11:36:04;101486.47;;;27.93;100.00
9421;BME280;4749;51.398;5.466;2023-05-07T11:38:36;101494.41;;;27.96;100.00
9421;BME280;4749;51.398;5.466;2023-05-07T11:41:05;101494.59;;;27.93;100.00
9421;BME280;4749;51.398;5.466;2023-05-07T11:43:33;101492.03;;;27.90;100.00
9421;BME280;4749;51.398;5.466;2023-05-07T11:46:11;101489.91;;;27.81;100.00
9421;BME280;4749;51.398;5.466;2023-05-07T11:48:39;101483.50;;;27.67;100.00
9421;BME280;4749;51.398;5.466;2023-05-07T11:51:07;101496.81;;;27.55;100.00
9421;BME280;4749;51.398;5.466;2023-05-07T11:53:38;101486.97;;;27.38;100.00
9421;BME280;4749;51.398;5.466;2023-05-07T11:56:12;101485.56;;;27.15;100.00
9421;BME280;4749;51.398;5.466;2023-05-07T11:58:41;101478.47;;;26.81;100.00
9421;BME280;4749;51.398;5.466;2023-05-07T12:01:09;101483.56;;;26.36;100.00
9421;BME280;4749;51.398;5.466;2023-05-07T12:03:40;101472.50;;;25.91;100.00
9421;BME280;4749;51.398;5.466;2023-05-07T12:06:11;101475.91;;;25.58;100.00
9421;BME280;4749;51.398;5.466;2023-05-07T12:08:41;101466.56;;;25.29;100.00
9421;BME280;4749;51.398;5.466;2023-05-07T12:11:44;101459.22;;;24.95;100.00
9421;BME280;4749;51.398;5.466;2023-05-07T12:14:06;101469.28;;;24.52;100.00
9421;BME280;4749;51.398;5.466;2023-05-07T12:16:39;101485.22;;;24.16;100.00
9421;BME280;4749;51.398;5.466;2023-05-07T12:19:08;101504.16;;;23.71;100.00
9421;BME280;4749;51.398;5.466;2023-05-07T12:21:41;101503.81;;;22.89;100.00
9421;BME280;4749;51.398;5.466;2023-05-07T12:24:08;101510.44;;;22.03;100.00
9421;BME280;4749;51.398;5.466;2023-05-07T12:26:39;101515.56;;;21.29;100.00
9421;BME280;4749;51.398;5.466;2023-05-07T12:29:07;101534.72;;;20.83;100.00
9421;BME280;4749;51.398;5.466;2023-05-07T12:31:34;101533.94;;;20.48;100.00
9421;BME280;4749;51.398;5.466;2023-05-07T12:34:02;101527.41;;;20.24;100.00
9421;BME280;4749;51.398;5.466;2023-05-07T12:36:38;101520.72;;;20.10;100.00
9421;BME280;4749;51.398;5.466;2023-05-07T12:39:07;101530.63;;;20.05;100.00
9421;BME280;4749;51.398;5.466;2023-05-07T12:41:55;101531.50;;;20.05;100.00
9421;BME280;4749;51.398;5.466;2023-05-07T12:44:25;101524.31;;;20.07;100.00
9421;BME280;4749;51.398;5.466;2023-05-07T12:46:55;101526.78;;;20.15;100.00
9421;BME280;4749;51.398;5.466;2023-05-07T12:49:26;101541.44;;;20.33;100.00
9421;BME280;4749;51.398;5.466;2023-05-07T12:51:54;101534.53;;;20.58;100.00
9421;BME280;4749;51.398;5.466;2023-05-07T12:54:37;101538.66;;;21.01;100.00
9421;BME280;4749;51.398;5.466;2023-05-07T12:57:07;101546.44;;;21.40;100.00
9421;BME280;4749;51.398;5.466;2023-05-07T12:59:40;101555.75;;;21.82;100.00
9421;BME280;4749;51.398;5.466;2023-05-07T13:02:08;101557.47;;;22.13;100.00
9421;BME280;4749;51.398;5.466;2023-05-07T13:04:36;101561.13;;;22.35;100.00
9421;BME280;4749;51.398;5.466;2023-05-07T13:07:03;101563.38;;;22.47;100.00
9421;BME280;4749;51.398;5.466;2023-05-07T13:09:31;101558.38;;;22.63;100.00
9421;BME280;4749;51.398;5.466;2023-05-07T13:11:58;101574.78;;;23.04;100.00
9421;BME280;4749;51.398;5.466;2023-05-07T13:14:29;101574.59;;;23.54;100.00
9421;BME280;4749;51.398;5.466;2023-05-07T13:16:56;101577.06;;;24.04;100.00
9421;BME280;4749;51.398;5.466;2023-05-07T13:19:27;101584.72;;;24.35;100.00
9421;BME280;4749;51.398;5.466;2023-05-07T13:21:57;101586.16;;;24.64;100.00
9421;BME280;4749;51.398;5.466;2023-05-07T13:24:25;101585.09;;;24.87;100.00
9421;BME280;4749;51.398;5.466;2023-05-07T13:26:52;101582.81;;;24.98;100.00
9421;BME280;4749;51.398;5.466;2023-05-07T13:29:20;101582.16;;;24.93;100.00